Time;durP1;ratioP1;P1;durP2;ratioP2;P2;SDS_P1;SDS_P2;PMS_P1;PMS_P2;Temp;Humidity;BMP_temperature;BMP_pressure;BME280_temperature;BME280_humidity;BME280_pressure;Samples;Min_cycle;Max_cycle;Signal;HPM_P1;HPM_P2
2021/03/05 00:02:42;;;;;;;44.6;36.1;;;;;;;3.46;100;98400.44;;;;
2021/03/05 00:12:40;;;;;;;56.4;40.8;;;;;;;3.15;100;98404.94;;;;
2021/03/05 00:22:38;;;;;;;42.7;34;;;;;;;3.27;100;98405.47;;;;
2021/03/05 00:32:36;;;;;;;57.6;39.5;;;;;;;3.22;100;98415.33;;;;
2021/03/05 00:42:34;;;;;;;58.6;44;;;;;;;2.91;100;98404.62;;;;
2021/03/05 00:52:32;;;;;;;55.5;40.9;;;;;;;2.27;100;98405.94;;;;
2021/03/05 01:02:29;;;;;;;63.2;37.9;;;;;;;1.97;100;98411.88;;;;
2021/03/05 01:12:27;;;;;;;40.3;33.7;;;;;;;1.94;100;98391.91;;;;
2021/03/05 01:22:25;;;;;;;51.6;38.3;;;;;;;1.83;100;98386.81;;;;
2021/03/05 01:32:23;;;;;;;47.5;33.6;;;;;;;1.78;100;98400.85;;;;
2021/03/05 01:42:21;;;;;;;51.7;34.3;;;;;;;1.61;100;98402.05;;;;
2021/03/05 01:52:18;;;;;;;49.5;34.5;;;;;;;1.54;100;98399.61;;;;
2021/03/05 02:02:16;;;;;;;51.4;33.7;;;;;;;1.53;100;98394.56;;;;
2021/03/05 02:12:14;;;;;;;39.6;33.1;;;;;;;1.43;100;98398.72;;;;
2021/03/05 02:22:34;;;;;;;45.2;32.7;;;;;;;1.5;100;98404.63;;;;
2021/03/05 02:32:12;;;;;;;46.5;35.6;;;;;;;1.28;100;98405.77;;;;
2021/03/05 02:42:08;;;;;;;38.2;31.9;;;;;;;1.31;100;98399.95;;;;
2021/03/05 02:52:08;;;;;;;45.7;33.3;;;;;;;1.39;100;98410.09;;;;
2021/03/05 03:02:07;;;;;;;41.7;31.6;;;;;;;1.4;100;98420.47;;;;
2021/03/05 03:12:00;;;;;;;34.5;27.1;;;;;;;0.87;100;98378.02;;;;
2021/03/05 03:21:58;;;;;;;32.3;26;;;;;;;0.82;100;98415.92;;;;
2021/03/05 03:31:56;;;;;;;26.9;24.2;;;;;;;0.76;100;98411.61;;;;
2021/03/05 03:41:54;;;;;;;38.8;22.8;;;;;;;0.71;100;98430.11;;;;
2021/03/05 03:51:51;;;;;;;35.8;22.1;;;;;;;0.73;100;98416.61;;;;
2021/03/05 04:01:49;;;;;;;29.8;21.3;;;;;;;0.54;100;98418.77;;;;
2021/03/05 04:11:46;;;;;;;23.5;18.8;;;;;;;0.77;100;98431.77;;;;
2021/03/05 04:21:44;;;;;;;26;17.3;;;;;;;0.79;100;98442.14;;;;
2021/03/05 04:31:42;;;;;;;23.3;16.9;;;;;;;0.86;100;98471.93;;;;
2021/03/05 04:41:39;;;;;;;20.2;13.7;;;;;;;0.79;100;98469.47;;;;
2021/03/05 04:51:39;;;;;;;23.8;17.7;;;;;;;0.81;100;98475.31;;;;
2021/03/05 05:01:34;;;;;;;26.6;17.2;;;;;;;0.8;100;98476.36;;;;
2021/03/05 05:11:32;;;;;;;25.9;16.2;;;;;;;0.8;100;98479.01;;;;
2021/03/05 05:21:30;;;;;;;26;17.5;;;;;;;0.77;100;98476.85;;;;
2021/03/05 05:31:27;;;;;;;25;16.5;;;;;;;0.85;100;98487.04;;;;
2021/03/05 05:41:25;;;;;;;24.5;18.2;;;;;;;1;100;98489.89;;;;
2021/03/05 05:51:23;;;;;;;24.9;18.4;;;;;;;1.13;100;98480.73;;;;
2021/03/05 06:01:20;;;;;;;19.6;15.9;;;;;;;1.24;100;98497.56;;;;
2021/03/05 06:11:18;;;;;;;27.3;19.1;;;;;;;1.15;100;98489.23;;;;
2021/03/05 06:21:16;;;;;;;23.2;14.3;;;;;;;1.14;100;98508.08;;;;
2021/03/05 06:31:14;;;;;;;21.3;18.1;;;;;;;1.48;100;98523.58;;;;
2021/03/05 06:41:11;;;;;;;22.9;16.2;;;;;;;1.49;100;98541.1;;;;
2021/03/05 06:51:09;;;;;;;20.8;15.8;;;;;;;1.84;100;98545.19;;;;
2021/03/05 07:01:07;;;;;;;17.9;14;;;;;;;1.87;100;98574.71;;;;
2021/03/05 07:11:04;;;;;;;20.9;15.8;;;;;;;1.98;100;98584.36;;;;
2021/03/05 07:21:02;;;;;;;19.9;15.6;;;;;;;2.05;100;98588.69;;;;
2021/03/05 07:31:00;;;;;;;20.5;18.1;;;;;;;2.19;100;98593.31;;;;
2021/03/05 07:41:02;;;;;;;24.7;19.2;;;;;;;2.24;100;98603.2;;;;
2021/03/05 07:50:56;;;;;;;26.9;19.7;;;;;;;2.25;100;98618.11;;;;
2021/03/05 08:00:54;;;;;;;31.6;21.5;;;;;;;2.3;100;98626.92;;;;
2021/03/05 08:10:52;;;;;;;30.5;23.1;;;;;;;2.36;100;98636.54;;;;
2021/03/05 08:20:55;;;;;;;25.9;21.1;;;;;;;2.31;100;98638.36;;;;
2021/03/05 08:30:47;;;;;;;27.3;21.4;;;;;;;2.42;100;98650.7;;;;
2021/03/05 08:40:45;;;;;;;36.1;24;;;;;;;2.26;100;98670.21;;;;
2021/03/05 08:50:43;;;;;;;12.5;10.6;;;;;;;1.6;99.82617;98682.78;;;;
2021/03/05 09:00:41;;;;;;;8.8;7;;;;;;;1.72;100;98702.07;;;;
2021/03/05 09:10:42;;;;;;;9.6;7.2;;;;;;;1.35;100;98715.14;;;;
2021/03/05 09:20:46;;;;;;;15.8;7.1;;;;;;;1.06;100;98734.07;;;;
2021/03/05 09:30:35;;;;;;;10.6;6.9;;;;;;;1.16;100;98735.03;;;;
2021/03/05 09:40:32;;;;;;;10.6;5.8;;;;;;;1.11;100;98758.05;;;;
2021/03/05 09:50:29;;;;;;;9.6;6.1;;;;;;;0.77;100;98765.17;;;;
2021/03/05 10:00:27;;;;;;;8.8;4.4;;;;;;;0.56;100;98774.62;;;;
2021/03/05 10:10:25;;;;;;;9.2;6.2;;;;;;;0.74;100;98787.68;;;;
2021/03/05 10:20:22;;;;;;;9.4;6.1;;;;;;;1.41;100;98799.13;;;;
2021/03/05 10:30:20;;;;;;;13.4;9.1;;;;;;;1.64;100;98818.56;;;;
2021/03/05 10:40:19;;;;;;;15.6;6;;;;;;;1.29;99.59961;98832.91;;;;
2021/03/05 10:50:16;;;;;;;7.4;4.1;;;;;;;1.49;98.05664;98838.53;;;;
2021/03/05 11:00:13;;;;;;;12.1;7.1;;;;;;;1.98;98.76172;98852.8;;;;
2021/03/05 11:10:11;;;;;;;8.3;5.1;;;;;;;1.44;95.91406;98861.56;;;;
2021/03/05 11:20:09;;;;;;;6.8;5.1;;;;;;;1.04;97.60156;98860.9;;;;
2021/03/05 11:30:07;;;;;;;8;6.4;;;;;;;0.75;96.38574;98878.67;;;;
2021/03/05 11:40:04;;;;;;;7.8;5.1;;;;;;;1.07;96.3916;98890.42;;;;
2021/03/05 11:50:02;;;;;;;9.4;6.1;;;;;;;1.46;94.30371;98886.02;;;;
2021/03/05 12:00:00;;;;;;;9.1;5.3;;;;;;;1.79;93.02344;98895.84;;;;
2021/03/05 12:09:57;;;;;;;8.8;5.9;;;;;;;1.8;88.80957;98908.09;;;;
2021/03/05 12:19:55;;;;;;;9.3;5.4;;;;;;;1.89;89.2041;98907.42;;;;
2021/03/05 12:29:53;;;;;;;9.7;5.4;;;;;;;1.78;85.94141;98921.6;;;;
2021/03/05 12:39:51;;;;;;;11.6;8.5;;;;;;;1.25;89.62109;98940.63;;;;
2021/03/05 12:49:49;;;;;;;15.3;8.5;;;;;;;0.85;91.88672;98958.45;;;;
2021/03/05 12:59:46;;;;;;;13.3;8.7;;;;;;;0.98;92.33301;98969.59;;;;
2021/03/05 13:09:44;;;;;;;11;9.1;;;;;;;1.29;93.67285;98980.78;;;;
2021/03/05 13:19:42;;;;;;;11.9;8.6;;;;;;;1.25;91.45703;98998.25;;;;
2021/03/05 13:29:40;;;;;;;20;9.9;;;;;;;1.13;91.05664;99006.25;;;;
2021/03/05 13:39:40;;;;;;;15.3;8;;;;;;;0.9;91.30371;99027.55;;;;
2021/03/05 13:49:35;;;;;;;11.3;6.3;;;;;;;0.72;90.25586;99038.3;;;;
2021/03/05 13:59:33;;;;;;;41;24.7;;;;;;;0.72;91.0127;99043.61;;;;
2021/03/05 14:09:30;;;;;;;11.2;7.3;;;;;;;0.61;90.32031;99066.45;;;;
2021/03/05 14:19:28;;;;;;;15.2;9;;;;;;;0.52;89.39063;99074.98;;;;
2021/03/05 14:29:26;;;;;;;19.6;12.5;;;;;;;0.52;90.24707;99094.36;;;;
2021/03/05 14:39:23;;;;;;;16.1;10.7;;;;;;;0.65;89.99023;99096.78;;;;
2021/03/05 14:49:21;;;;;;;9.7;6.9;;;;;;;0.72;89.67383;99101.97;;;;
2021/03/05 14:59:19;;;;;;;14.9;10.4;;;;;;;0.68;88.875;99108.77;;;;
2021/03/05 15:09:16;;;;;;;11.9;10;;;;;;;0.71;89.17676;99124.21;;;;
2021/03/05 15:19:14;;;;;;;12.3;9.7;;;;;;;0.55;89.20996;99138.98;;;;
2021/03/05 15:29:12;;;;;;;9.1;7;;;;;;;0.39;87.9707;99147.58;;;;
2021/03/05 15:39:09;;;;;;;16.6;6.7;;;;;;;0.2;88.40137;99172.55;;;;
2021/03/05 15:49:07;;;;;;;8;4.6;;;;;;;0.11;84.35449;99190.61;;;;
2021/03/05 15:59:04;;;;;;;10.3;4.9;;;;;;;0.12;85.03906;99213.43;;;;
2021/03/05 16:09:02;;;;;;;11.4;5.8;;;;;;;0.02;84.57813;99236.2;;;;
2021/03/05 16:18:59;;;;;;;14.4;9.6;;;;;;;-0.06;84.99219;99235.47;;;;
2021/03/05 16:28:57;;;;;;;11.1;6.8;;;;;;;-0.2;85.10449;99267.63;;;;
2021/03/05 16:38:55;;;;;;;17.4;13;;;;;;;-0.17;86.95508;99288.38;;;;
2021/03/05 16:48:53;;;;;;;13;10.2;;;;;;;-0.18;88.75;99307.97;;;;
2021/03/05 16:58:50;;;;;;;19.3;11.4;;;;;;;-0.19;90.82129;99330.18;;;;
2021/03/05 17:08:47;;;;;;;19.7;14.7;;;;;;;-0.23;90.94336;99340.41;;;;
2021/03/05 17:18:45;;;;;;;20.4;12.9;;;;;;;-0.3;89.72461;99368.79;;;;
2021/03/05 17:28:42;;;;;;;23.6;13.5;;;;;;;-0.47;90.2793;99388.91;;;;
2021/03/05 17:38:40;;;;;;;20.3;13.9;;;;;;;-0.6;91.0498;99399.61;;;;
2021/03/05 17:48:37;;;;;;;17.9;13.9;;;;;;;-0.73;91.67871;99429.61;;;;
2021/03/05 17:58:35;;;;;;;27.5;19;;;;;;;-0.83;93.17773;99428.48;;;;
2021/03/05 18:08:32;;;;;;;31;20.6;;;;;;;-0.88;94.70703;99441.53;;;;
2021/03/05 18:18:30;;;;;;;24.8;21;;;;;;;-1.05;96.18945;99455.27;;;;
2021/03/05 18:28:27;;;;;;;25.4;20.2;;;;;;;-1.34;97.67188;99476.12;;;;
2021/03/05 18:38:24;;;;;;;29.6;23.3;;;;;;;-1.52;99.02539;99482.89;;;;
2021/03/05 18:48:22;;;;;;;37.4;26.7;;;;;;;-1.57;99.42676;99508.33;;;;
2021/03/05 18:58:19;;;;;;;34.1;24.8;;;;;;;-1.63;100;99527.63;;;;
2021/03/05 19:08:17;;;;;;;41.6;32.8;;;;;;;-1.55;100;99532.7;;;;
2021/03/05 19:18:14;;;;;;;48.5;33.5;;;;;;;-1.37;100;99554.03;;;;
2021/03/05 19:28:12;;;;;;;39.5;33.9;;;;;;;-1.25;100;99562.15;;;;
2021/03/05 19:38:09;;;;;;;45.9;31.6;;;;;;;-1.14;99.625;99577.36;;;;
2021/03/05 19:48:07;;;;;;;43.8;32;;;;;;;-1.14;99.7334;99582.64;;;;
2021/03/05 19:58:04;;;;;;;35.9;31.9;;;;;;;-1.18;100;99592.04;;;;
2021/03/05 20:08:02;;;;;;;47.7;35.2;;;;;;;-1.09;99.95313;99611.94;;;;
2021/03/05 20:17:59;;;;;;;47.6;35.6;;;;;;;-1.1;98.79395;99623.53;;;;
2021/03/05 20:27:56;;;;;;;46.9;38.5;;;;;;;-1.04;98.5459;99627.99;;;;
2021/03/05 20:37:53;;;;;;;56;34.6;;;;;;;-1.4;98.37891;99631.12;;;;
2021/03/05 20:47:51;;;;;;;53.1;37.7;;;;;;;-1.95;99.54395;99647.35;;;;
2021/03/05 20:57:48;;;;;;;54.2;38.9;;;;;;;-2.28;100;99650.72;;;;
2021/03/05 21:07:46;;;;;;;57.2;38.5;;;;;;;-2.65;100;99657.3;;;;
2021/03/05 21:17:43;;;;;;;50.4;36.7;;;;;;;-2.87;100;99676.03;;;;
2021/03/05 21:27:41;;;;;;;45.8;35.2;;;;;;;-3.09;100;99681.37;;;;
2021/03/05 21:37:37;;;;;;;44.6;34.6;;;;;;;-3.24;100;99690.4;;;;
2021/03/05 21:47:35;;;;;;;47.6;35.9;;;;;;;-3.33;100;99696.83;;;;
2021/03/05 21:57:32;;;;;;;52.4;33.7;;;;;;;-3.47;100;99695.88;;;;
2021/03/05 22:07:29;;;;;;;42.8;29.2;;;;;;;-3.59;100;99695.59;;;;
2021/03/05 22:17:26;;;;;;;43.7;26.8;;;;;;;-3.65;100;99708.71;;;;
2021/03/05 22:27:23;;;;;;;53.1;32.7;;;;;;;-3.72;100;99716.55;;;;
2021/03/05 22:37:20;;;;;;;48.2;32.5;;;;;;;-3.85;100;99736.67;;;;
2021/03/05 22:47:17;;;;;;;41.1;32.1;;;;;;;-3.87;100;99744.75;;;;
2021/03/05 22:57:14;;;;;;;56.4;34.4;;;;;;;-3.92;100;99748.95;;;;
2021/03/05 23:07:11;;;;;;;50;30;;;;;;;-3.94;100;99759.66;;;;
2021/03/05 23:17:09;;;;;;;42.1;29.6;;;;;;;-3.97;100;99769.74;;;;
2021/03/05 23:27:06;;;;;;;38.6;22.9;;;;;;;-4.01;100;99773.73;;;;
2021/03/05 23:37:03;;;;;;;39;25;;;;;;;-4.01;100;99784.27;;;;
2021/03/05 23:47:00;;;;;;;30;23.8;;;;;;;-4.06;100;99780.37;;;;
2021/03/05 23:56:57;;;;;;;36.6;22.1;;;;;;;-4.11;100;99797.73;;;;
